Time;durP1;ratioP1;P1;durP2;ratioP2;P2;SDS_P1;SDS_P2;PMS_P1;PMS_P2;Temp;Humidity;BMP_temperature;BMP_pressure;BME280_temperature;BME280_humidity;BME280_pressure;Samples;Min_cycle;Max_cycle;Signal;HPM_P1;HPM_P2
2023/12/26 00:02:20;;;;;;;6.63;4.13;;;;;;;;;;5074301;28;20827;-81
2023/12/26 00:04:46;;;;;;;8.45;4.72;;;;;;;;;;5055174;28;20462;-81
2023/12/26 00:07:13;;;;;;;8.55;5.25;;;;;;;;;;5092693;28;20422;-81
2023/12/26 00:09:40;;;;;;;7.88;4.90;;;;;;;;;;5074339;28;20948;-82
2023/12/26 00:12:07;;;;;;;7.95;5.20;;;;;;;;;;5125855;27;20402;-81
2023/12/26 00:14:33;;;;;;;7.10;4.68;;;;;;;;;;5072402;28;20418;-81
2023/12/26 00:16:59;;;;;;;8.90;4.82;;;;;;;;;;5079990;28;20411;-81
2023/12/26 00:19:25;;;;;;;7.43;4.75;;;;;;;;;;5074876;28;20441;-81
2023/12/26 00:21:51;;;;;;;7.43;4.93;;;;;;;;;;5103351;28;20401;-81
2023/12/26 00:24:17;;;;;;;8.52;4.55;;;;;;;;;;5083503;28;20481;-81
2023/12/26 00:26:43;;;;;;;6.53;4.10;;;;;;;;;;5082524;28;20407;-81
2023/12/26 00:29:09;;;;;;;8.43;4.10;;;;;;;;;;5074908;28;20411;-82
2023/12/26 00:31:40;;;;;;;8.27;4.50;;;;;;;;;;5100758;27;20403;-83
2023/12/26 00:34:06;;;;;;;6.22;3.72;;;;;;;;;;5088868;28;20426;-83
2023/12/26 00:36:34;;;;;;;5.13;3.03;;;;;;;;;;5074699;28;20413;-83
2023/12/26 00:39:01;;;;;;;4.85;2.78;;;;;;;;;;5064675;28;20395;-83
2023/12/26 00:41:27;;;;;;;5.07;2.78;;;;;;;;;;5074376;28;20427;-83
2023/12/26 00:43:54;;;;;;;4.05;2.50;;;;;;;;;;5072572;28;20398;-83
2023/12/26 00:46:20;;;;;;;5.03;2.28;;;;;;;;;;5088339;28;20509;-83
2023/12/26 00:48:46;;;;;;;5.28;2.10;;;;;;;;;;5083904;28;20400;-83
2023/12/26 00:51:12;;;;;;;5.40;2.53;;;;;;;;;;5070817;28;20418;-82
2023/12/26 00:53:38;;;;;;;5.00;2.30;;;;;;;;;;5074590;28;20413;-81
2023/12/26 00:56:05;;;;;;;6.40;2.40;;;;;;;;;;5087560;28;20414;-81
2023/12/26 00:58:31;;;;;;;6.78;2.25;;;;;;;;;;5087031;28;20439;-81
2023/12/26 01:00:57;;;;;;;5.35;2.10;;;;;;;;;;5088980;28;20463;-82
2023/12/26 01:03:23;;;;;;;5.22;2.08;;;;;;;;;;5072790;28;20398;-81
2023/12/26 01:05:50;;;;;;;3.72;1.90;;;;;;;;;;5090600;28;20433;-81
2023/12/26 01:08:16;;;;;;;5.38;2.17;;;;;;;;;;5089300;28;20406;-80
2023/12/26 01:10:43;;;;;;;9.10;2.35;;;;;;;;;;5073804;28;20417;-81
2023/12/26 01:13:09;;;;;;;6.73;1.87;;;;;;;;;;5088919;28;20567;-80
2023/12/26 01:15:35;;;;;;;4.75;1.55;;;;;;;;;;5087595;28;20426;-80
2023/12/26 01:18:01;;;;;;;6.43;1.60;;;;;;;;;;5085764;28;20776;-81
2023/12/26 01:20:28;;;;;;;6.20;1.83;;;;;;;;;;5072812;28;20399;-80
2023/12/26 01:22:54;;;;;;;7.22;1.77;;;;;;;;;;5047130;28;20762;-80
2023/12/26 01:25:20;;;;;;;9.30;1.73;;;;;;;;;;5122230;27;20550;-80
2023/12/26 01:27:47;;;;;;;7.18;1.92;;;;;;;;;;5073462;28;20405;-81
2023/12/26 01:30:14;;;;;;;9.93;2.10;;;;;;;;;;5085591;28;20545;-81
2023/12/26 01:32:40;;;;;;;7.07;1.80;;;;;;;;;;5089954;28;20402;-80
2023/12/26 01:35:06;;;;;;;7.20;1.50;;;;;;;;;;5088039;28;20831;-81
2023/12/26 01:37:32;;;;;;;13.05;1.90;;;;;;;;;;5072289;28;20935;-80
2023/12/26 01:39:58;;;;;;;8.15;2.05;;;;;;;;;;5089684;28;20395;-81
2023/12/26 01:42:25;;;;;;;11.90;1.93;;;;;;;;;;5057659;28;20402;-80
2023/12/26 01:44:51;;;;;;;15.00;3.15;;;;;;;;;;5055660;28;20473;-80
2023/12/26 01:47:17;;;;;;;10.20;1.90;;;;;;;;;;5054783;28;20501;-82
2023/12/26 01:49:44;;;;;;;19.02;2.60;;;;;;;;;;5089351;28;20413;-82
2023/12/26 01:52:19;;;;;;;13.68;2.08;;;;;;;;;;5087138;28;20420;-82
2023/12/26 01:54:46;;;;;;;12.02;2.28;;;;;;;;;;5111275;28;20716;-82
2023/12/26 01:57:12;;;;;;;15.48;2.47;;;;;;;;;;5073408;28;20398;-82
2023/12/26 01:59:38;;;;;;;16.33;2.97;;;;;;;;;;5055927;28;20506;-80
2023/12/26 02:02:05;;;;;;;10.48;2.50;;;;;;;;;;5077290;28;20870;-81
2023/12/26 02:04:31;;;;;;;14.20;2.80;;;;;;;;;;5065020;28;20419;-82
2023/12/26 02:06:58;;;;;;;15.33;2.80;;;;;;;;;;5084955;28;20406;-82
2023/12/26 02:09:25;;;;;;;15.70;2.50;;;;;;;;;;5096444;28;20467;-83
2023/12/26 02:11:54;;;;;;;15.15;2.33;;;;;;;;;;5073697;28;20398;-81
2023/12/26 02:14:21;;;;;;;13.57;2.70;;;;;;;;;;5072997;28;20422;-81
2023/12/26 02:16:48;;;;;;;15.02;2.53;;;;;;;;;;5065644;28;20414;-82
2023/12/26 02:19:15;;;;;;;15.88;3.00;;;;;;;;;;5046723;28;20407;-82
2023/12/26 02:21:41;;;;;;;16.13;2.90;;;;;;;;;;5069890;28;20446;-82
2023/12/26 02:24:08;;;;;;;16.23;3.15;;;;;;;;;;5066682;28;20890;-82
2023/12/26 02:26:36;;;;;;;15.80;3.22;;;;;;;;;;5071801;28;20431;-82
2023/12/26 02:29:02;;;;;;;16.42;3.20;;;;;;;;;;5054425;28;20407;-82
2023/12/26 02:31:29;;;;;;;12.80;2.73;;;;;;;;;;5079157;28;20406;-82
2023/12/26 02:33:56;;;;;;;13.63;2.60;;;;;;;;;;5055602;28;20929;-80
2023/12/26 02:36:22;;;;;;;14.90;2.75;;;;;;;;;;5062827;28;20886;-80
2023/12/26 02:38:48;;;;;;;12.55;2.42;;;;;;;;;;5052700;28;20467;-79
2023/12/26 02:41:14;;;;;;;15.95;2.90;;;;;;;;;;5063258;28;20402;-80
2023/12/26 02:43:41;;;;;;;13.90;2.30;;;;;;;;;;5069529;28;20429;-80
2023/12/26 02:46:07;;;;;;;15.30;2.75;;;;;;;;;;5048861;28;20474;-81
2023/12/26 02:48:35;;;;;;;11.38;2.45;;;;;;;;;;5069999;28;20554;-80
2023/12/26 02:51:02;;;;;;;10.60;2.15;;;;;;;;;;5071522;28;20409;-79
2023/12/26 02:53:34;;;;;;;11.93;2.38;;;;;;;;;;5088176;28;20422;-79
2023/12/26 02:56:02;;;;;;;15.95;2.50;;;;;;;;;;5058201;28;20417;-79
2023/12/26 02:58:29;;;;;;;18.60;3.00;;;;;;;;;;5093461;28;20406;-82
2023/12/26 03:00:55;;;;;;;14.20;2.40;;;;;;;;;;5102195;28;20398;-81
2023/12/26 03:03:21;;;;;;;11.38;2.30;;;;;;;;;;5058992;28;20475;-81
2023/12/26 03:05:47;;;;;;;9.85;2.35;;;;;;;;;;5065798;28;20408;-81
2023/12/26 03:08:13;;;;;;;9.90;2.13;;;;;;;;;;5074487;28;20421;-81
2023/12/26 03:10:39;;;;;;;10.93;2.30;;;;;;;;;;5059399;28;20408;-82
2023/12/26 03:13:05;;;;;;;12.70;2.42;;;;;;;;;;5039231;28;20494;-80
2023/12/26 03:15:31;;;;;;;11.50;2.20;;;;;;;;;;5042522;28;20499;-80
2023/12/26 03:17:57;;;;;;;11.98;2.30;;;;;;;;;;5071499;28;20418;-81
2023/12/26 03:20:24;;;;;;;11.63;2.42;;;;;;;;;;5075501;28;20398;-80
2023/12/26 03:22:50;;;;;;;10.25;2.20;;;;;;;;;;5093269;28;20434;-80
2023/12/26 03:25:16;;;;;;;15.02;2.45;;;;;;;;;;5092959;28;20438;-80
2023/12/26 03:27:42;;;;;;;14.90;2.45;;;;;;;;;;5055657;28;20412;-80
2023/12/26 03:30:08;;;;;;;7.55;2.13;;;;;;;;;;5105738;28;20429;-80
2023/12/26 03:32:34;;;;;;;9.50;2.37;;;;;;;;;;5106739;28;20504;-82
2023/12/26 03:35:01;;;;;;;11.98;2.47;;;;;;;;;;5091971;28;20422;-82
2023/12/26 03:37:27;;;;;;;10.48;2.20;;;;;;;;;;5075298;28;20398;-82
2023/12/26 03:39:53;;;;;;;12.52;2.30;;;;;;;;;;5092662;28;20405;-82
2023/12/26 03:42:20;;;;;;;13.43;2.77;;;;;;;;;;5090257;28;20401;-81
2023/12/26 03:44:47;;;;;;;11.70;2.53;;;;;;;;;;5075827;28;20413;-82
2023/12/26 03:47:13;;;;;;;14.70;2.90;;;;;;;;;;5074036;28;20424;-81
2023/12/26 03:49:40;;;;;;;11.40;2.50;;;;;;;;;;5092569;28;20413;-80
2023/12/26 03:52:06;;;;;;;17.30;3.33;;;;;;;;;;5058904;28;20399;-80
2023/12/26 03:54:32;;;;;;;15.50;3.38;;;;;;;;;;5120916;27;20996;-80
2023/12/26 03:56:58;;;;;;;13.20;2.42;;;;;;;;;;5087578;28;20394;-80
2023/12/26 03:59:24;;;;;;;14.67;2.97;;;;;;;;;;5054935;28;20854;-80
2023/12/26 04:01:50;;;;;;;16.58;2.63;;;;;;;;;;5087745;28;20409;-81
2023/12/26 04:04:16;;;;;;;14.73;3.13;;;;;;;;;;5075615;28;20485;-80
2023/12/26 04:06:42;;;;;;;14.52;2.97;;;;;;;;;;5054505;28;20407;-81
2023/12/26 04:09:09;;;;;;;14.93;2.88;;;;;;;;;;5090794;28;20409;-82
2023/12/26 04:11:35;;;;;;;15.07;2.80;;;;;;;;;;5067509;28;20413;-82
2023/12/26 04:14:01;;;;;;;15.48;2.90;;;;;;;;;;5086358;28;20429;-82
2023/12/26 04:16:28;;;;;;;13.32;3.25;;;;;;;;;;5065693;28;20432;-82
2023/12/26 04:18:54;;;;;;;15.23;3.08;;;;;;;;;;5085114;28;20459;-82
2023/12/26 04:21:20;;;;;;;14.02;2.85;;;;;;;;;;5056098;28;20391;-82
2023/12/26 04:23:46;;;;;;;14.77;3.03;;;;;;;;;;5070038;28;20407;-80
2023/12/26 04:26:12;;;;;;;14.88;3.15;;;;;;;;;;5063266;28;20745;-81
2023/12/26 04:28:38;;;;;;;15.52;3.40;;;;;;;;;;5073456;28;20405;-80
2023/12/26 04:31:04;;;;;;;16.83;3.38;;;;;;;;;;5058159;28;20467;-80
2023/12/26 04:33:30;;;;;;;16.10;3.20;;;;;;;;;;5032265;28;20767;-79
2023/12/26 04:35:57;;;;;;;11.63;2.85;;;;;;;;;;5057869;28;20405;-80
2023/12/26 04:38:23;;;;;;;14.37;3.10;;;;;;;;;;5037503;28;21008;-79
2023/12/26 04:40:49;;;;;;;16.05;3.15;;;;;;;;;;5038146;28;20891;-80
2023/12/26 04:43:17;;;;;;;14.75;2.92;;;;;;;;;;5053563;28;20405;-80
2023/12/26 04:45:43;;;;;;;11.63;2.73;;;;;;;;;;5074905;28;20503;-78
2023/12/26 04:48:09;;;;;;;12.10;2.72;;;;;;;;;;5040758;28;20891;-80
2023/12/26 04:50:36;;;;;;;11.48;2.78;;;;;;;;;;5066770;28;20789;-80
2023/12/26 04:53:04;;;;;;;14.65;2.95;;;;;;;;;;5057665;28;20420;-80
2023/12/26 04:55:31;;;;;;;13.20;2.70;;;;;;;;;;5056327;28;20735;-80
2023/12/26 04:57:58;;;;;;;12.20;2.38;;;;;;;;;;5057234;28;20410;-80
2023/12/26 05:00:24;;;;;;;15.93;3.20;;;;;;;;;;5056820;28;20874;-80
2023/12/26 05:02:50;;;;;;;12.68;2.85;;;;;;;;;;5055476;28;20401;-81
2023/12/26 05:05:16;;;;;;;11.23;2.47;;;;;;;;;;5054670;28;20453;-80
2023/12/26 05:07:42;;;;;;;12.90;2.70;;;;;;;;;;5057068;28;20743;-80
2023/12/26 05:10:09;;;;;;;17.17;3.15;;;;;;;;;;5079205;28;20449;-80
2023/12/26 05:12:35;;;;;;;13.57;2.70;;;;;;;;;;5057658;28;20937;-80
2023/12/26 05:15:02;;;;;;;12.07;2.47;;;;;;;;;;5072552;28;20468;-80
2023/12/26 05:17:28;;;;;;;11.98;2.47;;;;;;;;;;5057626;28;20414;-80
2023/12/26 05:19:54;;;;;;;15.10;2.40;;;;;;;;;;5072390;28;20400;-81
2023/12/26 05:22:20;;;;;;;11.40;2.90;;;;;;;;;;5086286;28;20398;-80
2023/12/26 05:24:46;;;;;;;9.77;2.67;;;;;;;;;;5066966;28;20484;-81
2023/12/26 05:27:12;;;;;;;15.48;3.22;;;;;;;;;;5062788;28;20406;-81
2023/12/26 05:29:38;;;;;;;11.07;2.88;;;;;;;;;;5037704;28;20440;-80
2023/12/26 05:32:07;;;;;;;16.25;2.60;;;;;;;;;;5042078;28;20413;-80
2023/12/26 05:34:33;;;;;;;11.05;2.95;;;;;;;;;;5053796;28;20550;-80
2023/12/26 05:36:59;;;;;;;13.10;2.45;;;;;;;;;;5055975;28;20409;-80
2023/12/26 05:39:25;;;;;;;10.05;2.42;;;;;;;;;;5086390;28;20782;-80
2023/12/26 05:41:51;;;;;;;11.93;2.30;;;;;;;;;;5056898;28;20498;-80
2023/12/26 05:44:18;;;;;;;13.65;2.50;;;;;;;;;;5046244;28;20921;-80
2023/12/26 05:46:45;;;;;;;17.58;2.65;;;;;;;;;;5080062;28;20406;-80
2023/12/26 05:49:12;;;;;;;14.98;2.47;;;;;;;;;;5075053;28;20411;-80
2023/12/26 05:51:38;;;;;;;12.30;2.42;;;;;;;;;;5071650;28;20415;-81
2023/12/26 05:54:04;;;;;;;14.30;2.37;;;;;;;;;;5055606;28;20483;-80
2023/12/26 05:56:30;;;;;;;11.15;2.67;;;;;;;;;;5071158;28;20414;-82
2023/12/26 05:58:57;;;;;;;15.30;3.10;;;;;;;;;;5060298;28;20488;-81
2023/12/26 06:01:23;;;;;;;16.52;2.60;;;;;;;;;;5054628;28;20417;-80
2023/12/26 06:03:49;;;;;;;16.25;2.78;;;;;;;;;;5067117;28;20398;-80
2023/12/26 06:06:15;;;;;;;12.02;2.55;;;;;;;;;;5053700;28;20435;-80
2023/12/26 06:08:41;;;;;;;12.55;2.67;;;;;;;;;;5066386;28;20413;-80
2023/12/26 06:11:08;;;;;;;11.70;2.58;;;;;;;;;;5079679;28;20801;-80
2023/12/26 06:13:34;;;;;;;13.10;2.60;;;;;;;;;;5059414;28;20436;-80
2023/12/26 06:16:00;;;;;;;13.95;2.80;;;;;;;;;;5079175;28;20427;-80
2023/12/26 06:18:26;;;;;;;12.30;2.70;;;;;;;;;;5070101;28;20403;-82
2023/12/26 06:20:52;;;;;;;12.80;3.22;;;;;;;;;;5059808;28;20902;-82
2023/12/26 06:23:19;;;;;;;15.60;2.77;;;;;;;;;;5046016;28;20405;-82
2023/12/26 06:25:46;;;;;;;12.65;2.42;;;;;;;;;;5065094;28;20398;-82
2023/12/26 06:28:12;;;;;;;12.80;3.17;;;;;;;;;;5063958;28;20413;-81
2023/12/26 06:30:38;;;;;;;12.80;2.45;;;;;;;;;;5044990;28;20425;-82
2023/12/26 06:33:04;;;;;;;12.05;2.40;;;;;;;;;;5060647;28;20406;-82
2023/12/26 06:35:30;;;;;;;13.15;2.60;;;;;;;;;;5058830;28;20445;-82
2023/12/26 06:37:56;;;;;;;15.10;2.50;;;;;;;;;;5059420;28;20398;-82
2023/12/26 06:40:22;;;;;;;14.10;3.53;;;;;;;;;;5072184;28;20406;-82
2023/12/26 06:42:48;;;;;;;15.20;3.08;;;;;;;;;;5075116;28;20477;-82
2023/12/26 06:45:15;;;;;;;15.07;2.95;;;;;;;;;;5051636;28;20736;-82
2023/12/26 06:47:42;;;;;;;11.05;3.50;;;;;;;;;;5084882;28;20402;-81
2023/12/26 06:50:08;;;;;;;18.23;3.17;;;;;;;;;;5085130;28;20528;-81
2023/12/26 06:52:35;;;;;;;15.50;3.20;;;;;;;;;;5059627;28;20402;-81
2023/12/26 06:55:01;;;;;;;17.53;2.90;;;;;;;;;;5060312;28;20414;-80
2023/12/26 06:57:27;;;;;;;16.63;3.72;;;;;;;;;;5058681;28;20394;-82
2023/12/26 06:59:53;;;;;;;15.13;3.10;;;;;;;;;;5059547;28;20500;-82
2023/12/26 07:02:19;;;;;;;11.95;2.90;;;;;;;;;;5039447;28;20498;-81
2023/12/26 07:04:45;;;;;;;14.57;2.70;;;;;;;;;;5071488;28;20476;-80
2023/12/26 07:07:11;;;;;;;13.73;2.67;;;;;;;;;;5089186;28;20405;-82
2023/12/26 07:09:38;;;;;;;15.30;2.93;;;;;;;;;;5076775;28;20405;-81
2023/12/26 07:12:04;;;;;;;15.50;3.30;;;;;;;;;;5073741;28;20556;-82
2023/12/26 07:14:30;;;;;;;15.27;3.00;;;;;;;;;;5042992;28;20774;-82
2023/12/26 07:16:57;;;;;;;13.95;3.03;;;;;;;;;;5067349;28;20414;-82
2023/12/26 07:19:24;;;;;;;17.20;3.55;;;;;;;;;;5076267;28;20398;-82
2023/12/26 07:21:50;;;;;;;17.20;3.55;;;;;;;;;;5109292;28;20402;-82
2023/12/26 07:24:16;;;;;;;16.38;3.05;;;;;;;;;;5092876;28;20901;-82
2023/12/26 07:26:42;;;;;;;15.13;2.93;;;;;;;;;;5068595;28;20411;-83
2023/12/26 07:29:08;;;;;;;11.30;2.80;;;;;;;;;;5117679;27;20421;-83
2023/12/26 07:31:34;;;;;;;17.30;3.10;;;;;;;;;;5075448;28;20409;-83
2023/12/26 07:34:04;;;;;;;18.45;3.28;;;;;;;;;;5064119;28;20444;-83
2023/12/26 07:36:32;;;;;;;16.42;3.70;;;;;;;;;;5072701;28;20445;-83
2023/12/26 07:38:59;;;;;;;16.13;3.17;;;;;;;;;;5092751;28;20394;-83
2023/12/26 07:41:25;;;;;;;14.33;3.27;;;;;;;;;;5080007;28;20450;-82
2023/12/26 07:43:52;;;;;;;14.38;3.33;;;;;;;;;;5073846;28;20403;-82
2023/12/26 07:46:22;;;;;;;16.20;4.10;;;;;;;;;;5083744;28;20405;-80
2023/12/26 07:48:48;;;;;;;16.75;3.25;;;;;;;;;;5053831;28;20507;-80
2023/12/26 07:51:17;;;;;;;14.25;3.17;;;;;;;;;;5084958;28;20498;-83
2023/12/26 07:53:47;;;;;;;17.00;3.05;;;;;;;;;;5092215;28;20571;-83
2023/12/26 07:56:13;;;;;;;13.85;3.25;;;;;;;;;;5067814;28;20402;-82
2023/12/26 07:58:39;;;;;;;15.48;3.08;;;;;;;;;;5127062;27;20797;-84
2023/12/26 08:01:07;;;;;;;17.00;3.35;;;;;;;;;;5090171;28;20422;-85
2023/12/26 08:03:35;;;;;;;13.23;2.75;;;;;;;;;;5085778;28;20406;-82
2023/12/26 08:06:04;;;;;;;13.00;2.77;;;;;;;;;;5122536;27;21439;-83
2023/12/26 08:08:35;;;;;;;14.00;3.00;;;;;;;;;;5105464;28;20414;-82
2023/12/26 08:11:03;;;;;;;16.05;3.70;;;;;;;;;;5090514;28;20404;-81
2023/12/26 08:13:31;;;;;;;12.77;3.25;;;;;;;;;;5089703;28;20420;-82
2023/12/26 08:16:05;;;;;;;18.48;3.47;;;;;;;;;;5069300;28;20418;-81
2023/12/26 08:18:32;;;;;;;14.88;3.40;;;;;;;;;;5070319;28;20398;-81
2023/12/26 08:21:02;;;;;;;13.90;3.55;;;;;;;;;;5056033;28;20399;-80
2023/12/26 08:23:29;;;;;;;19.15;3.42;;;;;;;;;;5071276;28;20748;-82
2023/12/26 08:25:56;;;;;;;15.15;3.58;;;;;;;;;;5082016;28;20800;-80
2023/12/26 08:28:22;;;;;;;22.35;3.30;;;;;;;;;;5037780;28;20412;-80
2023/12/26 08:31:11;;;;;;;20.25;3.88;;;;;;;;;;5066891;28;20392;-81
2023/12/26 08:33:37;;;;;;;16.50;3.33;;;;;;;;;;5044287;28;20892;-81
2023/12/26 08:36:04;;;;;;;20.00;4.15;;;;;;;;;;5049457;28;20499;-83
2023/12/26 08:38:41;;;;;;;18.67;3.10;;;;;;;;;;5037059;28;20805;-83
2023/12/26 08:43:55;;;;;;;16.27;3.10;;;;;;;;;;5085612;28;20411;-80
2023/12/26 08:46:21;;;;;;;14.80;3.00;;;;;;;;;;5065458;28;20407;-80
2023/12/26 08:48:47;;;;;;;14.83;3.10;;;;;;;;;;5034969;28;20435;-81
2023/12/26 08:51:14;;;;;;;14.43;3.17;;;;;;;;;;5060601;28;20466;-81
2023/12/26 08:53:49;;;;;;;14.70;3.40;;;;;;;;;;5027829;28;20497;-80
2023/12/26 08:56:24;;;;;;;14.37;2.70;;;;;;;;;;5069946;28;20395;-80
2023/12/26 08:58:50;;;;;;;15.50;3.08;;;;;;;;;;5076347;28;20405;-82
2023/12/26 09:01:17;;;;;;;15.20;3.00;;;;;;;;;;5092738;28;20406;-79
2023/12/26 09:03:46;;;;;;;17.83;3.33;;;;;;;;;;5073737;28;20421;-79
2023/12/26 09:06:12;;;;;;;13.30;3.00;;;;;;;;;;5083290;28;20497;-83
2023/12/26 09:08:39;;;;;;;19.25;3.20;;;;;;;;;;5093002;28;20402;-83
2023/12/26 09:11:07;;;;;;;16.60;2.87;;;;;;;;;;5094190;28;20397;-83
2023/12/26 09:13:33;;;;;;;16.17;3.38;;;;;;;;;;5075496;28;20552;-80
2023/12/26 09:15:59;;;;;;;16.80;3.50;;;;;;;;;;5091050;28;20424;-79
2023/12/26 09:18:29;;;;;;;16.13;2.78;;;;;;;;;;5059548;28;20391;-82
2023/12/26 09:20:59;;;;;;;16.75;3.10;;;;;;;;;;5093939;28;20394;-85
2023/12/26 09:23:30;;;;;;;16.92;3.30;;;;;;;;;;5076567;28;20409;-82
2023/12/26 09:26:03;;;;;;;18.42;3.50;;;;;;;;;;5090853;28;20402;-84
2023/12/26 09:28:30;;;;;;;15.23;3.40;;;;;;;;;;5091532;28;20402;-81
2023/12/26 09:30:56;;;;;;;17.83;3.47;;;;;;;;;;5080543;28;20413;-84
2023/12/26 09:33:22;;;;;;;14.73;3.17;;;;;;;;;;5075185;28;20424;-84
2023/12/26 09:35:52;;;;;;;15.95;3.50;;;;;;;;;;5091532;28;20421;-86
2023/12/26 09:38:18;;;;;;;14.95;3.42;;;;;;;;;;5075788;28;20394;-85
2023/12/26 09:40:44;;;;;;;16.05;3.28;;;;;;;;;;5072049;28;20421;-80
2023/12/26 09:43:14;;;;;;;15.88;3.63;;;;;;;;;;5102171;28;20469;-81
2023/12/26 09:45:43;;;;;;;17.63;3.72;;;;;;;;;;5069201;28;20449;-83
2023/12/26 09:48:11;;;;;;;13.97;3.00;;;;;;;;;;5096406;28;20396;-82
2023/12/26 09:50:37;;;;;;;15.05;3.80;;;;;;;;;;5081712;28;20425;-82
2023/12/26 09:53:07;;;;;;;17.17;3.45;;;;;;;;;;5104378;28;20450;-82
2023/12/26 09:55:33;;;;;;;14.38;3.10;;;;;;;;;;5069679;28;20411;-81
2023/12/26 09:58:03;;;;;;;18.27;3.00;;;;;;;;;;5069531;28;20477;-81
2023/12/26 10:00:32;;;;;;;18.63;3.17;;;;;;;;;;5084584;28;20486;-81
2023/12/26 10:02:58;;;;;;;16.40;3.25;;;;;;;;;;5097229;28;20898;-82
2023/12/26 10:05:25;;;;;;;18.27;4.18;;;;;;;;;;5111066;27;20407;-82
2023/12/26 10:07:54;;;;;;;14.97;3.23;;;;;;;;;;5099814;27;20428;-82
2023/12/26 10:10:23;;;;;;;18.98;3.85;;;;;;;;;;5108753;28;20543;-82
2023/12/26 10:12:52;;;;;;;21.50;3.30;;;;;;;;;;5088679;28;20433;-82
2023/12/26 10:15:31;;;;;;;16.33;3.45;;;;;;;;;;5068986;28;20921;-82
2023/12/26 10:18:02;;;;;;;19.35;3.13;;;;;;;;;;5055317;28;20427;-81
2023/12/26 10:20:37;;;;;;;16.75;3.72;;;;;;;;;;5050421;28;20411;-84
2023/12/26 10:23:47;;;;;;;14.05;3.22;;;;;;;;;;5067583;28;20420;-85
2023/12/26 10:26:16;;;;;;;16.67;3.50;;;;;;;;;;5029577;28;20962;-81
2023/12/26 10:28:47;;;;;;;16.67;3.35;;;;;;;;;;4996468;28;20410;-82
2023/12/26 10:31:35;;;;;;;15.93;3.20;;;;;;;;;;5062080;28;20404;-82
2023/12/26 10:34:23;;;;;;;15.60;3.80;;;;;;;;;;5064372;28;20907;-82
2023/12/26 10:36:56;;;;;;;17.75;3.95;;;;;;;;;;5069826;28;20404;-81
2023/12/26 10:39:25;;;;;;;16.17;3.83;;;;;;;;;;5083966;28;20518;-81
2023/12/26 10:42:03;;;;;;;19.40;3.50;;;;;;;;;;5106496;28;20406;-81
2023/12/26 10:45:04;;;;;;;17.02;3.38;;;9.40;99.90;;;;;;5057739;28;20911;-83
2023/12/26 10:50:57;;;;;;;15.15;3.45;;;9.90;99.90;;;;;;5049620;28;20410;-82
2023/12/26 10:54:16;;;;;;;15.65;3.50;;;9.50;99.90;;;;;;5011052;28;20431;-83
2023/12/26 10:56:49;;;;;;;16.63;3.28;;;;;;;;;;5023489;28;20422;-83
2023/12/26 13:53:50;;;;;;;5.25;1.52;;;;;;;;;;5036029;28;20438;-81
2023/12/26 13:56:51;;;;;;;6.67;1.37;;;;;;;;;;4979412;28;20997;-79
2023/12/26 13:59:17;;;;;;;4.75;1.13;;;;;;;;;;5025544;28;20435;-80
2023/12/26 14:02:00;;;;;;;6.05;1.50;;;;;;;;;;5006195;28;20423;-80
2023/12/26 14:04:47;;;;;;;6.03;1.40;;;;;;;;;;4973858;28;20403;-80
2023/12/26 14:07:22;;;;;;;6.07;1.20;;;;;;;;;;4981677;28;20414;-83
2023/12/26 14:09:48;;;;;;;7.55;1.50;;;;;;;;;;5010895;28;20418;-79
2023/12/26 14:12:14;;;;;;;5.05;1.00;;;;;;;;;;5010874;28;20411;-81
2023/12/26 14:14:40;;;;;;;6.35;1.30;;;;;;;;;;5026397;28;20427;-81
2023/12/26 14:17:06;;;;;;;7.30;1.30;;;;;;;;;;5033062;28;20821;-80
2023/12/26 14:19:45;;;;;;;10.25;3.05;;;;;;;;;;5084617;28;20412;-80
2023/12/26 14:22:23;;;;;;;7.70;2.28;;;;;;;;;;5077691;28;20386;-83
2023/12/26 14:24:49;;;;;;;9.35;1.88;;;;;;;;;;5113394;27;20430;-84
2023/12/26 14:27:15;;;;;;;8.65;3.20;;;;;;;;;;5099426;28;20402;-81
2023/12/26 14:29:41;;;;;;;12.18;6.10;;;;;;;;;;5080130;28;20396;-83
2023/12/26 14:32:16;;;;;;;9.65;3.95;;;;;;;;;;5089701;28;20849;-83
2023/12/26 14:38:26;;;;;;;7.88;1.63;;;;;;;;;;5082634;28;20463;-82
2023/12/26 14:40:56;;;;;;;6.20;1.70;;;;;;;;;;5072712;28;20417;-83
2023/12/26 14:47:09;;;;;;;8.93;1.77;;;;;;;;;;5065134;28;20442;-83
2023/12/26 14:49:35;;;;;;;7.07;1.70;;;;;;;;;;5102724;28;20413;-82
2023/12/26 14:52:01;;;;;;;6.53;1.42;;;;;;;;;;5091426;28;20743;-83
2023/12/26 14:54:33;;;;;;;8.82;1.90;;;;;;;;;;5093417;28;20414;-82
2023/12/26 14:56:59;;;;;;;7.47;1.80;;;;;;;;;;5078655;28;20493;-83
2023/12/26 14:59:26;;;;;;;11.68;2.13;;;;;;;;;;5080535;28;20475;-79
2023/12/26 15:02:01;;;;;;;6.60;1.60;;;;;;;;;;5074883;28;20395;-80
2023/12/26 15:04:56;;;;;;;9.10;1.70;;;;;;;;;;5074010;28;20490;-81
2023/12/26 15:07:22;;;;;;;5.95;1.77;;;;;;;;;;5078777;28;20414;-82
2023/12/26 15:09:48;;;;;;;9.85;2.42;;;;;;;;;;5091595;28;20403;-82
2023/12/26 15:12:15;;;;;;;8.43;1.70;;;;;;;;;;5077992;28;20485;-82
2023/12/26 15:14:41;;;;;;;7.07;1.73;;;;;;;;;;5058310;28;20457;-82
2023/12/26 15:17:07;;;;;;;6.35;1.77;;;;;;;;;;5101105;28;20406;-82
2023/12/26 15:19:33;;;;;;;9.20;1.70;;;;;;;;;;5060931;28;20467;-82
2023/12/26 15:21:59;;;;;;;6.35;1.67;;;;;;;;;;5084529;28;20426;-83
2023/12/26 15:24:26;;;;;;;9.63;1.65;;;;;;;;;;5066642;28;21181;-82
2023/12/26 15:26:52;;;;;;;12.15;5.30;;;;;;;;;;5060421;28;20404;-82
2023/12/26 15:29:18;;;;;;;7.88;2.50;;;;;;;;;;5054521;28;20403;-81
2023/12/26 15:31:50;;;;;;;7.57;2.28;;;;;;;;;;5083044;28;20402;-81
2023/12/26 15:34:17;;;;;;;9.63;2.33;;;;;;;;;;5084572;28;20450;-81
2023/12/26 15:36:44;;;;;;;6.10;1.65;;;;;;;;;;5074197;28;20408;-80
2023/12/26 15:39:15;;;;;;;10.87;2.00;;;;;;;;;;5057311;28;21020;-80
2023/12/26 15:41:41;;;;;;;7.43;1.60;;;;;;;;;;5066035;28;20991;-80
2023/12/26 15:44:07;;;;;;;9.15;1.50;;;;;;;;;;5077255;28;20429;-80
2023/12/26 15:46:34;;;;;;;8.82;1.80;;;;;;;;;;5062640;28;20426;-79
2023/12/26 15:49:00;;;;;;;10.45;1.80;;;;;;;;;;5097526;28;20437;-79
2023/12/26 15:51:26;;;;;;;8.68;1.83;;;;;;;;;;5089726;28;20432;-80
2023/12/26 15:53:52;;;;;;;7.00;1.63;;;;;;;;;;5096409;28;20432;-80
2023/12/26 15:56:29;;;;;;;6.47;1.80;;;;;;;;;;5064691;28;20401;-80
2023/12/26 15:58:55;;;;;;;10.93;2.25;;;;;;;;;;5063321;28;20510;-81
2023/12/26 16:01:21;;;;;;;7.87;2.10;;;;;;;;;;5055596;28;20762;-80
2023/12/26 16:03:52;;;;;;;8.55;1.70;;;;;;;;;;5080194;28;20482;-81
2023/12/26 16:06:22;;;;;;;8.27;2.13;;;;;;;;;;5090893;28;20400;-81
2023/12/26 16:08:49;;;;;;;9.48;2.65;;;;;;;;;;5068146;28;20714;-81
2023/12/26 16:11:16;;;;;;;12.18;5.03;;;;;;;;;;5054504;28;20755;-82
2023/12/26 16:13:46;;;;;;;12.93;3.25;;;;;;;;;;5068392;28;20418;-81
2023/12/26 16:16:12;;;;;;;39.67;12.90;;;;;;;;;;5057140;28;20422;-81
2023/12/26 16:18:39;;;;;;;42.25;15.18;;;;;;;;;;5070923;28;20428;-80
2023/12/26 16:21:06;;;;;;;64.47;23.02;;;;;;;;;;5074345;28;20394;-80
2023/12/26 16:23:32;;;;;;;56.55;20.88;;;;;;;;;;5073737;28;20405;-79
2023/12/26 16:25:58;;;;;;;46.20;16.25;;;;;;;;;;5089571;28;20906;-80
2023/12/26 16:28:27;;;;;;;55.85;19.95;;;;;;;;;;5042339;28;20506;-81
2023/12/26 16:30:54;;;;;;;18.60;5.10;;;;;;;;;;5081973;28;20393;-81
2023/12/26 16:33:23;;;;;;;10.07;2.70;;;;;;;;;;5056714;28;20499;-81
2023/12/26 16:35:49;;;;;;;10.70;2.15;;;;;;;;;;5055353;28;20717;-81
2023/12/26 16:38:15;;;;;;;11.80;2.60;;;;;;;;;;5114053;27;20898;-81
2023/12/26 16:40:41;;;;;;;10.30;2.40;;;;;;;;;;5088738;28;20442;-81
2023/12/26 16:43:08;;;;;;;12.05;2.55;;;;;;;;;;5062505;28;21782;-81
2023/12/26 16:45:34;;;;;;;14.00;2.22;;;;;;;;;;5077216;28;20428;-81
2023/12/26 16:48:01;;;;;;;15.85;2.60;;;;;;;;;;5068865;28;20763;-80
2023/12/26 16:50:28;;;;;;;13.73;3.10;;;;;;;;;;5115939;27;20884;-80
2023/12/26 16:52:54;;;;;;;10.73;2.83;;;;;;;;;;5072510;28;20422;-81
2023/12/26 16:55:20;;;;;;;9.90;2.30;;;;;;;;;;5072333;28;20419;-82
2023/12/26 16:57:46;;;;;;;13.27;3.00;;;;;;;;;;5072754;28;20413;-81
2023/12/26 17:00:13;;;;;;;18.15;3.10;;;;;;;;;;5072268;28;20406;-81
2023/12/26 17:02:39;;;;;;;10.40;2.80;;;;;;;;;;5054474;28;20422;-81
2023/12/26 17:05:06;;;;;;;16.45;3.20;;;;;;;;;;5070703;28;21059;-82
2023/12/26 17:07:33;;;;;;;13.87;4.47;;;;;;;;;;5069950;28;20409;-81
2023/12/26 17:09:59;;;;;;;18.25;6.22;;;;;;;;;;5085871;28;20797;-81
2023/12/26 17:12:26;;;;;;;16.80;5.82;;;;;;;;;;5088734;28;20410;-82
2023/12/26 17:14:52;;;;;;;18.33;7.18;;;;;;;;;;5070804;28;20466;-81
2023/12/26 17:17:18;;;;;;;20.10;7.63;;;;;;;;;;5071683;28;20414;-80
2023/12/26 17:19:44;;;;;;;19.20;5.70;;;;;;;;;;5069921;28;20504;-81
2023/12/26 17:22:11;;;;;;;19.33;5.45;;;;;;;;;;5086195;28;21471;-81
2023/12/26 17:24:38;;;;;;;20.73;6.30;;;;;;;;;;5086548;28;20416;-81
2023/12/26 17:27:04;;;;;;;16.20;4.80;;;;;;;;;;5068055;28;20426;-82
2023/12/26 17:29:33;;;;;;;16.10;3.33;;;;;;;;;;5080833;28;20510;-81
2023/12/26 17:32:00;;;;;;;12.55;2.90;;;;;;;;;;5076698;28;20414;-82
2023/12/26 17:34:26;;;;;;;15.30;3.00;;;;;;;;;;5105379;28;20418;-81
2023/12/26 17:36:53;;;;;;;16.42;3.15;;;;;;;;;;5105452;28;20449;-81
2023/12/26 17:39:20;;;;;;;10.57;2.90;;;;;;;;;;5072967;28;20460;-81
2023/12/26 17:41:46;;;;;;;13.90;2.78;;;;;;;;;;5089752;28;20402;-80
2023/12/26 17:44:16;;;;;;;12.18;3.17;;;;;;;;;;5072505;28;20408;-80